This is the latest recevied weather packets stored in our database for station/object SV9TNF-56. If no packets are shown the sender has not sent any weather packets the latest 10 day(s).
| Time | Temp. | Humidity | Pressure | Rain* | Wind** | Luminosity | Snow |
|---|---|---|---|---|---|---|---|
| 1788530984 | 26.11° C | 50% | 1010.2 hPa | 0 mm | 24.59 m/s, 163° | - | - |
| 1788530684 | 26.11° C | 48% | 1010.2 hPa | 0 mm | 19.67 m/s, 150° | - | - |
| 1788530384 | 26.67° C | 48% | 1010.2 hPa | 0 mm | 27.72 m/s, 295° | - | - |
| 1788530084 | 26.11° C | 48% | 1010.2 hPa | 0 mm | 21.46 m/s, 186° | - | - |
| 1788529784 | 26.67° C | 48% | 1010.2 hPa | 0 mm | 30.4 m/s, 240° | - | - |
| 1788529484 | 26.67° C | 46% | 1010.2 hPa | 0 mm | 22.8 m/s, 232° | - | - |
| 1788529184 | 26.67° C | 45% | 1009.8 hPa | 0 mm | 25.48 m/s, 198° | - | - |
| 1788528884 | 26.67° C | 44% | 1010.5 hPa | 0 mm | 30.4 m/s, 213° | - | - |
| 1788528583 | 26.67° C | 45% | 1009.8 hPa | 0 mm | 25.93 m/s, 222° | - | - |
| 1788528284 | 26.67° C | 48% | 1010.5 hPa | 0 mm | 15.2 m/s, 182° | - | - |
| 1788527983 | 26.11° C | 49% | 1010.8 hPa | 0 mm | 32.63 m/s, 192° | - | - |
| 1788527683 | 26.67° C | 46% | 1010.5 hPa | 0 mm | 26.82 m/s, 228° | - | - |
| 1788527383 | 26.11° C | 48% | 1010.5 hPa | 0 mm | 17.88 m/s, 180° | - | - |
| 1788527083 | 26.11° C | 48% | 1010.2 hPa | 0 mm | 21.46 m/s, 204° | - | - |
| 1788526783 | 26.67° C | 48% | 1010.2 hPa | 0 mm | 24.59 m/s, 193° | - | - |
| 1788526483 | 26.11° C | 46% | 1010.5 hPa | 0 mm | 28.61 m/s, 282° | - | - |
| 1788526183 | 26.67° C | 46% | 1010.5 hPa | 0 mm | 10.28 m/s, 222° | - | - |
| 1788525883 | 26.67° C | 44% | 1010.5 hPa | 0 mm | 28.61 m/s, 228° | - | - |
| 1788525582 | 26.67° C | 43% | 1010.2 hPa | 0 mm | 26.82 m/s, 172° | - | - |
| 1788525283 | 26.67° C | 42% | 1010.2 hPa | 0 mm | 33.53 m/s, 227° | - | - |
| 1788524998 | 26.67° C | 44% | 1010.5 hPa | 0 mm | 19.22 m/s, 210° | - | - |
| 1788524682 | 26.67° C | 45% | 1010.5 hPa | 0 mm | 14.31 m/s, 163° | - | - |
| 1788524383 | 26.67° C | 47% | 1010.5 hPa | 0 mm | 24.59 m/s, 172° | - | - |
| 1788524082 | 26.67° C | 47% | 1010.5 hPa | 0 mm | 16.99 m/s, 192° | - | - |
| 1788523782 | 26.67° C | 46% | 1010.5 hPa | 0 mm | 20.56 m/s, 218° | - | - |
* Rain latest hour (hover to see other rain measurements)
** Current wind speed in m/s (hover to see current wind gust speed)